Time;durP1;ratioP1;P1;durP2;ratioP2;P2;SDS_P1;SDS_P2;PMS_P1;PMS_P2;Temp;Humidity;BMP_temperature;BMP_pressure;BME280_temperature;BME280_humidity;BME280_pressure;Samples;Min_cycle;Max_cycle;Signal;HPM_P1;HPM_P2
2022/11/03 00:01:13;;;;;;;7.97;3.80;;;10.20;99.90;;;;;;5138263;28;20454;-60
2022/11/03 00:03:40;;;;;;;9.90;4.30;;;10.20;99.90;;;;;;5138394;28;20454;-62
2022/11/03 00:06:09;;;;;;;10.93;3.73;;;10.20;99.90;;;;;;5137826;27;20460;-61
2022/11/03 00:08:39;;;;;;;10.80;4.00;;;10.20;99.90;;;;;;5138084;28;20491;-60
2022/11/03 00:11:09;;;;;;;8.67;3.83;;;10.20;99.90;;;;;;5138031;28;20472;-61
2022/11/03 00:13:44;;;;;;;13.13;4.50;;;10.10;99.90;;;;;;5141695;27;20454;-62
2022/11/03 00:16:12;;;;;;;10.40;4.53;;;10.10;99.90;;;;;;5142583;27;20779;-59
2022/11/03 00:18:40;;;;;;;10.00;3.60;;;10.10;99.90;;;;;;5142455;27;20493;-60
2022/11/03 00:21:10;;;;;;;9.10;3.87;;;10.10;99.90;;;;;;5142254;27;20917;-60
2022/11/03 00:23:39;;;;;;;9.27;3.90;;;10.00;99.90;;;;;;5142860;27;20437;-61
2022/11/03 00:26:09;;;;;;;7.83;3.83;;;10.10;99.90;;;;;;5142528;27;20864;-60
2022/11/03 00:28:37;;;;;;;8.73;4.10;;;10.00;99.90;;;;;;5141264;27;20490;-60
2022/11/03 00:31:08;;;;;;;10.53;4.50;;;10.10;99.90;;;;;;5141422;27;20473;-59
2022/11/03 00:33:35;;;;;;;13.03;3.87;;;10.10;99.90;;;;;;5141354;27;20440;-61
2022/11/03 00:36:03;;;;;;;12.70;4.37;;;10.00;99.90;;;;;;5142047;27;20850;-61
2022/11/03 00:38:32;;;;;;;10.13;3.93;;;10.00;99.90;;;;;;5141425;27;20436;-61
2022/11/03 00:41:01;;;;;;;9.93;4.67;;;10.10;99.90;;;;;;5141102;27;20459;-58
2022/11/03 00:43:32;;;;;;;8.83;3.90;;;10.10;99.90;;;;;;5141465;27;20459;-60
2022/11/03 00:46:00;;;;;;;6.37;3.37;;;10.10;99.90;;;;;;5141729;27;20494;-60
2022/11/03 00:48:31;;;;;;;13.60;4.20;;;10.10;99.90;;;;;;5141538;27;20948;-61
2022/11/03 00:51:09;;;;;;;10.17;3.70;;;10.10;99.90;;;;;;5141964;27;20930;-62
2022/11/03 00:53:40;;;;;;;8.70;3.30;;;10.10;99.90;;;;;;5141567;27;20458;-60
2022/11/03 00:56:10;;;;;;;9.40;4.00;;;10.10;99.90;;;;;;5141431;27;20429;-61
2022/11/03 00:58:37;;;;;;;8.10;4.17;;;10.10;99.90;;;;;;5141403;27;20463;-61
2022/11/03 01:01:06;;;;;;;18.10;4.83;;;10.10;99.90;;;;;;5141759;27;20424;-62
2022/11/03 01:03:38;;;;;;;13.03;4.50;;;10.10;99.90;;;;;;5141334;27;20437;-62
2022/11/03 01:08:53;;;;;;;8.50;3.90;;;10.20;99.90;;;;;;5140541;27;20469;-61
2022/11/03 01:14:09;;;;;;;7.90;4.43;;;10.30;99.90;;;;;;5141158;27;20522;-61
2022/11/03 01:16:37;;;;;;;9.43;3.80;;;10.20;99.90;;;;;;5140932;27;20872;-60
2022/11/03 01:19:06;;;;;;;9.87;3.37;;;10.30;99.90;;;;;;5140488;27;20457;-62
2022/11/03 01:21:33;;;;;;;9.80;4.00;;;10.30;99.90;;;;;;5140603;27;20752;-62
2022/11/03 01:24:02;;;;;;;12.70;4.27;;;10.30;99.90;;;;;;5141295;27;20459;-60
2022/11/03 01:26:30;;;;;;;10.90;4.33;;;10.30;1.00;;;;;;5140912;27;20458;-61
2022/11/03 01:28:59;;;;;;;6.73;3.50;;;10.30;1.00;;;;;;5140748;27;20577;-61
2022/11/03 01:31:27;;;;;;;9.17;3.37;;;10.30;1.00;;;;;;5140942;27;20459;-62
2022/11/03 01:33:56;;;;;;;7.80;4.00;;;10.30;1.00;;;;;;5140546;27;20468;-59
2022/11/03 01:36:24;;;;;;;17.90;4.87;;;10.30;1.00;;;;;;5140233;27;20509;-62
2022/11/03 01:38:51;;;;;;;13.37;4.20;;;10.30;1.00;;;;;;5139912;27;20455;-61
2022/11/03 01:41:21;;;;;;;7.83;3.87;;;10.30;1.00;;;;;;5140393;27;20458;-59
2022/11/03 01:43:53;;;;;;;16.10;4.37;;;10.30;1.00;;;;;;5140524;27;20756;-61
2022/11/03 01:46:24;;;;;;;10.33;3.70;;;10.30;1.00;;;;;;5140848;27;20459;-61
2022/11/03 01:49:03;;;;;;;9.67;3.67;;;10.30;1.00;;;;;;5140203;27;20950;-60
2022/11/03 01:51:33;;;;;;;12.57;3.80;;;10.30;1.00;;;;;;5140325;27;20462;-60
2022/11/03 01:54:04;;;;;;;8.83;3.40;;;10.30;1.00;;;;;;5140405;27;20459;-60
2022/11/03 01:56:35;;;;;;;12.53;4.23;;;10.30;1.00;;;;;;5139989;27;20525;-61
2022/11/03 01:59:03;;;;;;;7.23;3.77;;;10.30;1.00;;;;;;5139807;27;20458;-61
2022/11/03 02:01:31;;;;;;;8.83;3.80;;;10.30;1.00;;;;;;5139593;27;20437;-61
2022/11/03 02:04:05;;;;;;;10.47;3.63;;;10.30;1.00;;;;;;5140573;27;20749;-59
2022/11/03 02:06:35;;;;;;;7.50;3.37;;;10.30;1.00;;;;;;5140042;27;20519;-61
2022/11/03 02:09:04;;;;;;;6.53;4.00;;;10.30;1.00;;;;;;5140380;27;20493;-61
2022/11/03 02:14:18;;;;;;;8.27;3.00;;;10.30;1.00;;;;;;5139777;27;20468;-61
2022/11/03 02:16:50;;;;;;;8.70;3.50;;;10.30;1.00;;;;;;5139695;27;20463;-59
2022/11/03 02:19:25;;;;;;;6.53;3.40;;;10.30;1.00;;;;;;5139553;27;20528;-60
2022/11/03 02:22:00;;;;;;;13.67;4.23;;;10.20;1.00;;;;;;5139852;27;20928;-60
2022/11/03 02:24:36;;;;;;;7.40;3.13;;;10.20;1.00;;;;;;5139119;27;20458;-61
2022/11/03 02:27:12;;;;;;;11.70;4.30;;;10.10;1.00;;;;;;5139725;27;20433;-60
2022/11/03 02:29:40;;;;;;;7.20;4.43;;;10.20;1.00;;;;;;5139307;27;20768;-62
2022/11/03 02:32:16;;;;;;;7.80;3.50;;;10.20;1.00;;;;;;5139549;27;20467;-60
2022/11/03 02:34:48;;;;;;;6.73;2.93;;;10.20;1.00;;;;;;5139199;27;20469;-59
2022/11/03 02:37:19;;;;;;;19.43;5.23;;;10.20;1.00;;;;;;5139190;27;20557;-60
2022/11/03 02:39:48;;;;;;;10.63;3.67;;;10.20;1.00;;;;;;5139233;27;20477;-61
2022/11/03 02:42:19;;;;;;;11.93;3.27;;;10.20;1.00;;;;;;5138745;27;20516;-59
2022/11/03 02:44:50;;;;;;;10.27;4.07;;;10.20;1.00;;;;;;5139057;27;20557;-61
2022/11/03 02:47:19;;;;;;;8.27;3.27;;;10.20;1.00;;;;;;5139054;27;20528;-61
2022/11/03 02:49:48;;;;;;;12.97;4.10;;;10.20;1.00;;;;;;5139141;27;20490;-61
2022/11/03 02:52:36;;;;;;;9.33;4.50;;;10.20;1.00;;;;;;5139210;27;20433;-58
2022/11/03 02:55:11;;;;;;;7.97;3.40;;;10.20;1.00;;;;;;5139445;27;20745;-61
2022/11/03 02:57:47;;;;;;;7.73;3.27;;;10.20;1.00;;;;;;5139483;27;20466;-61
2022/11/03 03:00:18;;;;;;;11.30;4.50;;;10.10;1.00;;;;;;5139414;27;20738;-59
2022/11/03 03:02:55;;;;;;;7.67;4.10;;;10.10;1.00;;;;;;5138672;27;20482;-62
2022/11/03 03:05:29;;;;;;;9.73;3.10;;;10.10;1.00;;;;;;5137740;27;20486;-61
2022/11/03 03:08:01;;;;;;;10.03;3.73;;;10.10;1.00;;;;;;5138478;27;20501;-62
2022/11/03 03:10:36;;;;;;;9.77;4.03;;;10.10;1.00;;;;;;5138555;28;20589;-60
2022/11/03 03:13:06;;;;;;;9.10;3.47;;;10.10;1.00;;;;;;5139130;27;20459;-61
2022/11/03 03:15:41;;;;;;;14.00;4.50;;;10.10;1.00;;;;;;5138892;28;20553;-61
2022/11/03 03:18:15;;;;;;;13.00;4.00;;;10.20;1.00;;;;;;5139053;28;20458;-61
2022/11/03 03:20:53;;;;;;;8.50;3.80;;;10.20;1.00;;;;;;5138752;28;20735;-60
2022/11/03 03:23:23;;;;;;;11.93;4.63;;;10.20;1.00;;;;;;5138348;27;20459;-60
2022/11/03 03:25:54;;;;;;;8.53;4.40;;;10.20;1.00;;;;;;5139226;27;20952;-59
2022/11/03 03:28:26;;;;;;;7.07;3.67;;;10.30;1.00;;;;;;5139121;28;20455;-61
2022/11/03 03:30:58;;;;;;;7.67;3.60;;;10.20;1.00;;;;;;5138369;28;20954;-62
2022/11/03 03:33:27;;;;;;;9.90;3.50;;;10.20;1.00;;;;;;5138961;27;20767;-61
2022/11/03 03:35:56;;;;;;;8.43;3.00;;;10.30;1.00;;;;;;5138909;28;20439;-61
2022/11/03 03:38:28;;;;;;;8.83;3.13;;;10.30;1.00;;;;;;5138765;28;20456;-62
2022/11/03 03:40:59;;;;;;;10.93;3.00;;;10.30;1.00;;;;;;5138627;28;20722;-61
2022/11/03 03:43:31;;;;;;;11.30;4.50;;;10.30;1.00;;;;;;5138746;28;20433;-61
2022/11/03 03:46:04;;;;;;;7.97;4.33;;;10.30;1.00;;;;;;5139023;28;20439;-61
2022/11/03 03:48:31;;;;;;;8.23;3.90;;;10.30;1.00;;;;;;5141559;27;20758;-59
2022/11/03 03:51:00;;;;;;;12.90;4.07;;;10.30;1.00;;;;;;5142584;27;20504;-60
2022/11/03 03:53:32;;;;;;;14.23;4.20;;;10.30;1.00;;;;;;5143139;27;20458;-60
2022/11/03 03:56:00;;;;;;;11.60;4.17;;;10.30;1.00;;;;;;5142658;27;20443;-59
2022/11/03 03:58:29;;;;;;;11.03;3.50;;;10.30;1.00;;;;;;5142454;27;20779;-59
2022/11/03 04:00:56;;;;;;;7.03;3.33;;;10.30;1.00;;;;;;5142689;27;20433;-58
2022/11/03 04:03:25;;;;;;;7.20;3.10;;;10.30;1.00;;;;;;5142470;27;20516;-62
2022/11/03 04:05:54;;;;;;;13.00;4.00;;;10.30;1.00;;;;;;5141032;27;20547;-62
2022/11/03 04:08:23;;;;;;;5.93;3.10;;;10.30;1.00;;;;;;5142236;27;20542;-62
2022/11/03 04:22:20;;;;;;;8.90;3.80;;;10.30;1.00;;;;;;5116793;27;20479;-61
2022/11/03 04:24:49;;;;;;;9.23;3.70;;;10.30;1.00;;;;;;5142153;27;20895;-61
2022/11/03 04:27:35;;;;;;;10.83;3.53;;;10.30;1.00;;;;;;5141824;27;20757;-59
2022/11/03 04:30:14;;;;;;;10.43;4.00;;;10.30;1.00;;;;;;5142348;27;20488;-60
2022/11/03 04:32:41;;;;;;;9.17;3.50;;;10.30;1.00;;;;;;5141821;27;20830;-62
2022/11/03 04:35:16;;;;;;;11.40;3.90;;;10.30;1.00;;;;;;5142076;27;20429;-62
2022/11/03 04:37:43;;;;;;;11.23;3.97;;;10.30;1.00;;;;;;5142203;27;20800;-60
2022/11/03 04:40:16;;;;;;;6.40;3.00;;;10.30;1.00;;;;;;5141956;27;20458;-61
2022/11/03 04:42:44;;;;;;;10.07;4.20;;;10.30;1.00;;;;;;5142164;27;20455;-60
2022/11/03 04:45:23;;;;;;;10.00;3.80;;;10.30;1.00;;;;;;5141774;27;20748;-60
2022/11/03 04:47:51;;;;;;;9.63;4.20;;;10.30;1.00;;;;;;5141865;27;20462;-62
2022/11/03 04:50:22;;;;;;;10.77;4.03;;;10.30;1.00;;;;;;5141667;27;20548;-62
2022/11/03 04:52:55;;;;;;;11.47;4.63;;;10.40;1.00;;;;;;5141380;27;20459;-61
2022/11/03 04:55:40;;;;;;;10.20;3.70;;;10.40;1.00;;;;;;5141415;27;20459;-60
2022/11/03 04:58:16;;;;;;;8.60;3.73;;;10.40;1.00;;;;;;5141187;27;20879;-60
2022/11/03 05:00:45;;;;;;;9.33;3.80;;;10.50;1.00;;;;;;5140784;27;20849;-60
2022/11/03 05:03:17;;;;;;;11.13;3.87;;;10.50;1.00;;;;;;5141191;27;20528;-60
2022/11/03 05:05:44;;;;;;;10.43;4.27;;;10.50;1.00;;;;;;5140856;27;20486;-59
2022/11/03 05:08:13;;;;;;;7.23;3.37;;;10.50;1.00;;;;;;5141485;27;20861;-61
2022/11/03 05:10:40;;;;;;;13.87;4.10;;;10.50;1.00;;;;;;5140941;27;20490;-57
2022/11/03 05:13:15;;;;;;;10.13;3.90;;;10.50;1.00;;;;;;5140591;27;20537;-60
2022/11/03 05:15:46;;;;;;;11.23;3.30;;;10.50;1.00;;;;;;5138489;27;20482;-59
2022/11/03 05:18:27;;;;;;;10.83;3.97;;;10.50;1.00;;;;;;5141587;27;20455;-61
2022/11/03 05:20:58;;;;;;;11.47;4.47;;;10.60;1.00;;;;;;5139867;27;20790;-62
2022/11/03 05:23:28;;;;;;;14.07;3.93;;;10.60;1.00;;;;;;5139918;27;20451;-60
2022/11/03 05:25:57;;;;;;;11.77;4.00;;;10.60;1.00;;;;;;5139111;27;20458;-58
2022/11/03 05:28:28;;;;;;;13.20;3.80;;;10.70;1.00;;;;;;5138992;27;20461;-61
2022/11/03 05:31:00;;;;;;;9.13;4.23;;;10.70;1.00;;;;;;5135915;27;20460;-59
2022/11/03 05:33:29;;;;;;;5.73;3.27;;;10.70;1.00;;;;;;5128549;27;20543;-61
2022/11/03 05:36:00;;;;;;;8.40;3.23;;;10.70;1.00;;;;;;5140532;27;20459;-59
2022/11/03 05:38:33;;;;;;;10.67;4.10;;;10.70;1.00;;;;;;5139437;27;20481;-60
2022/11/03 05:41:01;;;;;;;7.30;3.30;;;10.70;1.00;;;;;;5126825;27;20427;-60
2022/11/03 05:43:29;;;;;;;8.50;3.70;;;10.70;1.00;;;;;;5138246;27;20522;-61
2022/11/03 05:46:02;;;;;;;9.33;3.67;;;10.80;1.00;;;;;;5139215;27;20455;-60
2022/11/03 05:48:34;;;;;;;13.17;4.17;;;10.80;1.00;;;;;;5117941;28;20459;-59
2022/11/03 05:51:10;;;;;;;8.20;3.20;;;10.70;1.00;;;;;;5128037;27;20482;-62
2022/11/03 05:53:43;;;;;;;6.80;3.60;;;10.70;1.00;;;;;;5138518;27;20469;-61
2022/11/03 05:56:16;;;;;;;9.20;4.17;;;10.70;1.00;;;;;;5122910;27;20466;-62
2022/11/03 05:58:48;;;;;;;8.63;4.27;;;10.70;1.00;;;;;;5119713;28;20448;-61
2022/11/03 06:01:24;;;;;;;13.37;5.13;;;10.70;1.00;;;;;;5119714;28;20462;-62
2022/11/03 06:03:51;;;;;;;9.77;3.40;;;10.70;1.00;;;;;;5120466;27;20557;-61
2022/11/03 06:06:21;;;;;;;8.17;3.80;;;10.70;1.00;;;;;;5131473;27;20949;-61
2022/11/03 06:08:52;;;;;;;7.07;3.30;;;10.70;1.00;;;;;;5134966;27;20488;-62
2022/11/03 06:11:30;;;;;;;7.83;3.37;;;10.80;1.00;;;;;;5136715;27;20489;-62
2022/11/03 06:14:01;;;;;;;6.10;3.30;;;10.80;1.00;;;;;;5136788;27;20458;-60
2022/11/03 06:16:38;;;;;;;10.87;3.90;;;10.80;1.00;;;;;;5139042;27;20554;-60
2022/11/03 06:19:22;;;;;;;16.83;4.27;;;10.90;1.00;;;;;;5123335;27;20459;-62
2022/11/03 06:21:54;;;;;;;7.30;3.17;;;10.90;1.00;;;;;;5135681;27;20829;-61
2022/11/03 06:24:26;;;;;;;9.60;3.23;;;11.00;1.00;;;;;;5135784;27;20481;-61
2022/11/03 06:26:53;;;;;;;9.97;3.83;;;11.00;1.00;;;;;;5131063;27;20429;-59
2022/11/03 06:29:22;;;;;;;14.20;4.23;;;11.00;1.00;;;;;;5134019;27;20894;-59
2022/11/03 06:31:54;;;;;;;8.03;3.40;;;11.10;1.00;;;;;;5136032;27;20487;-61
2022/11/03 06:34:33;;;;;;;9.30;3.70;;;11.00;1.00;;;;;;5137054;27;20870;-62
2022/11/03 06:37:10;;;;;;;11.70;3.20;;;11.10;1.00;;;;;;5118238;27;20463;-61
2022/11/03 06:39:38;;;;;;;8.37;4.03;;;11.00;1.00;;;;;;5118398;28;20763;-61
2022/11/03 06:42:13;;;;;;;11.37;4.33;;;11.00;1.00;;;;;;5117330;28;20456;-62
2022/11/03 06:44:45;;;;;;;11.00;3.47;;;11.00;1.00;;;;;;5120953;27;20430;-60
2022/11/03 06:47:22;;;;;;;9.27;4.17;;;11.00;1.00;;;;;;5139503;27;20458;-60
2022/11/03 06:49:50;;;;;;;5.80;3.87;;;11.10;1.00;;;;;;5138508;27;20433;-61
2022/11/03 06:52:28;;;;;;;6.93;3.30;;;11.10;1.00;;;;;;5135968;27;20494;-60
2022/11/03 06:55:08;;;;;;;8.90;3.80;;;11.20;1.00;;;;;;5118202;28;20914;-62
2022/11/03 06:57:40;;;;;;;8.13;3.50;;;11.20;1.00;;;;;;5118209;28;20777;-61
2022/11/03 07:00:16;;;;;;;12.10;3.80;;;11.20;1.00;;;;;;5118163;28;20812;-60
2022/11/03 07:03:03;;;;;;;15.80;4.10;;;11.30;1.00;;;;;;5117838;28;20938;-61
2022/11/03 07:05:31;;;;;;;9.33;3.37;;;11.30;1.00;;;;;;5116568;28;20814;-62
2022/11/03 07:08:02;;;;;;;7.60;3.77;;;11.30;1.00;;;;;;5118010;28;20481;-62
2022/11/03 07:10:31;;;;;;;13.10;4.00;;;11.30;1.00;;;;;;5117762;28;20482;-61
2022/11/03 07:13:10;;;;;;;6.13;3.13;;;11.40;1.00;;;;;;5117497;28;20878;-60
2022/11/03 07:15:38;;;;;;;6.27;4.23;;;11.40;1.00;;;;;;5118164;28;20494;-57
2022/11/03 07:18:17;;;;;;;11.70;4.03;;;11.40;1.00;;;;;;5136122;28;20463;-61
2022/11/03 07:20:44;;;;;;;9.83;4.63;;;11.40;1.00;;;;;;5136141;28;20447;-62
2022/11/03 07:23:16;;;;;;;8.47;3.80;;;11.40;1.00;;;;;;5141585;27;20446;-61
2022/11/03 07:25:44;;;;;;;14.53;3.80;;;11.40;1.00;;;;;;5142386;27;20946;-62
2022/11/03 07:28:11;;;;;;;8.07;3.87;;;11.40;1.00;;;;;;5140444;27;20554;-61
2022/11/03 07:30:41;;;;;;;7.17;3.47;;;11.40;1.00;;;;;;5138025;27;20479;-62
2022/11/03 07:33:20;;;;;;;6.10;3.03;;;11.40;1.00;;;;;;5121110;28;20459;-61
2022/11/03 07:35:50;;;;;;;8.47;3.60;;;11.50;1.00;;;;;;5120953;28;20448;-61
2022/11/03 07:38:20;;;;;;;9.20;3.80;;;11.50;1.00;;;;;;5121471;27;20897;-61
2022/11/03 07:40:48;;;;;;;8.17;3.43;;;11.50;1.00;;;;;;5120398;27;20448;-62
2022/11/03 07:43:20;;;;;;;9.30;3.70;;;11.40;1.00;;;;;;5120901;28;20796;-61
2022/11/03 07:45:50;;;;;;;10.10;3.87;;;11.50;1.00;;;;;;5119711;28;20494;-62
2022/11/03 07:48:24;;;;;;;9.07;4.40;;;11.50;1.00;;;;;;5130871;27;20554;-61
2022/11/03 07:50:56;;;;;;;4.30;3.03;;;11.70;1.00;;;;;;5140975;27;20908;-58
2022/11/03 07:53:34;;;;;;;13.43;4.10;;;11.80;1.00;;;;;;5142150;27;20507;-61
2022/11/03 07:56:02;;;;;;;9.60;4.13;;;12.00;1.00;;;;;;5141395;27;20457;-61
2022/11/03 07:58:36;;;;;;;7.60;3.50;;;12.20;1.00;;;;;;5131487;27;20440;-60
2022/11/03 08:01:21;;;;;;;13.20;3.50;;;12.30;1.00;;;;;;5121510;28;20852;-61
2022/11/03 08:03:50;;;;;;;8.03;3.73;;;12.50;1.00;;;;;;5121577;28;20459;-62
2022/11/03 08:06:20;;;;;;;8.40;3.53;;;12.50;99.90;;;;;;5121968;28;20483;-61
2022/11/03 08:08:47;;;;;;;8.87;3.60;;;12.50;99.90;;;;;;5120956;27;20870;-62
2022/11/03 08:11:14;;;;;;;9.00;4.47;;;12.40;99.90;;;;;;5119803;28;20801;-62
2022/11/03 08:13:42;;;;;;;9.30;3.70;;;12.40;99.90;;;;;;5119221;27;20502;-61
2022/11/03 08:16:10;;;;;;;7.37;2.83;;;12.40;99.90;;;;;;5120496;28;20983;-62
2022/11/03 08:18:37;;;;;;;8.77;3.87;;;12.40;99.90;;;;;;5122362;27;20442;-59
2022/11/03 08:21:06;;;;;;;8.17;3.30;;;12.50;99.90;;;;;;5141060;27;20837;-61
2022/11/03 08:23:33;;;;;;;7.27;3.10;;;12.70;99.90;;;;;;5141436;27;20720;-62
2022/11/03 08:26:08;;;;;;;11.40;3.63;;;12.90;99.90;;;;;;5141200;27;20566;-62
2022/11/03 08:28:40;;;;;;;8.33;3.70;;;13.10;99.90;;;;;;5139646;27;20888;-62
2022/11/03 08:31:08;;;;;;;7.37;2.73;;;13.20;99.90;;;;;;5138478;27;20478;-63
2022/11/03 08:33:35;;;;;;;6.20;3.60;;;13.20;99.90;;;;;;5139597;27;20458;-62
2022/11/03 08:36:05;;;;;;;10.33;4.13;;;13.10;99.90;;;;;;5140931;27;20462;-61
2022/11/03 08:38:32;;;;;;;8.17;3.67;;;13.10;99.90;;;;;;5141396;27;20484;-62
2022/11/03 08:41:00;;;;;;;8.83;3.90;;;13.10;99.90;;;;;;5140373;27;21063;-62
2022/11/03 08:43:28;;;;;;;8.87;4.00;;;13.00;99.90;;;;;;5140660;27;20437;-61
2022/11/03 08:45:55;;;;;;;6.60;3.07;;;13.10;99.90;;;;;;5140581;27;20461;-61
2022/11/03 08:48:25;;;;;;;10.27;2.80;;;13.10;99.90;;;;;;5141357;27;20437;-62
2022/11/03 08:50:54;;;;;;;6.47;3.07;;;13.20;99.90;;;;;;5133385;27;20458;-62
2022/11/03 08:53:24;;;;;;;7.00;3.00;;;13.40;99.90;;;;;;5120141;28;20460;-62
2022/11/03 08:55:52;;;;;;;6.77;3.60;;;13.50;99.90;;;;;;5121428;27;20468;-62
2022/11/03 08:58:20;;;;;;;6.53;3.00;;;13.60;99.90;;;;;;5119917;28;20464;-62
2022/11/03 09:00:52;;;;;;;6.70;2.90;;;13.60;99.90;;;;;;5122662;27;20471;-62
2022/11/03 09:03:22;;;;;;;8.30;4.13;;;13.70;99.90;;;;;;5140903;27;20502;-59
2022/11/03 09:05:49;;;;;;;5.47;3.40;;;13.90;99.90;;;;;;5139643;27;20783;-62
2022/11/03 09:08:17;;;;;;;8.10;3.00;;;13.90;99.90;;;;;;5138850;27;20463;-61
2022/11/03 09:10:48;;;;;;;5.97;3.13;;;14.00;99.90;;;;;;5120447;27;20767;-61
2022/11/03 09:13:15;;;;;;;6.90;2.97;;;14.10;99.90;;;;;;5132861;27;20751;-62
2022/11/03 09:15:46;;;;;;;9.73;3.27;;;14.20;99.90;;;;;;5119774;28;20759;-62
2022/11/03 09:18:13;;;;;;;12.50;3.93;;;14.30;99.90;;;;;;5119569;28;20459;-62
2022/11/03 09:20:40;;;;;;;7.23;3.00;;;14.20;99.90;;;;;;5119116;27;20455;-61
2022/11/03 09:23:07;;;;;;;8.33;3.40;;;14.50;99.90;;;;;;5127652;27;20442;-63
2022/11/03 09:25:35;;;;;;;4.60;2.73;;;14.70;99.90;;;;;;5119644;28;20435;-62
2022/11/03 09:28:04;;;;;;;5.13;2.70;;;14.80;99.90;;;;;;5123042;27;20434;-61
2022/11/03 09:30:31;;;;;;;4.70;3.27;;;15.00;99.90;;;;;;5140235;27;20463;-59
2022/11/03 09:32:58;;;;;;;6.70;3.10;;;15.10;99.90;;;;;;5139540;27;20947;-60
2022/11/03 09:35:26;;;;;;;6.93;3.30;;;15.20;99.90;;;;;;5139591;27;20462;-62
2022/11/03 09:37:54;;;;;;;10.73;3.70;;;15.20;99.90;;;;;;5139542;27;20495;-60
2022/11/03 09:40:29;;;;;;;7.53;3.27;;;15.10;99.90;;;;;;5137653;27;20434;-62
2022/11/03 09:42:59;;;;;;;7.83;3.07;;;15.00;99.90;;;;;;5139038;27;20699;-62
2022/11/03 09:45:27;;;;;;;7.20;2.87;;;15.00;99.90;;;;;;5138344;27;20545;-62
2022/11/03 09:47:55;;;;;;;4.97;2.73;;;15.10;99.90;;;;;;5139422;27;20458;-61
2022/11/03 09:50:22;;;;;;;10.33;3.90;;;15.00;99.90;;;;;;5122976;27;20459;-60
2022/11/03 09:52:53;;;;;;;6.10;3.43;;;15.00;99.90;;;;;;5118552;27;20492;-60
2022/11/03 09:55:23;;;;;;;8.03;3.30;;;15.00;99.90;;;;;;5119446;28;20456;-61
2022/11/03 09:57:52;;;;;;;5.40;2.47;;;15.00;99.90;;;;;;5118927;28;20464;-63
2022/11/03 10:00:25;;;;;;;5.70;2.87;;;14.90;99.90;;;;;;5130073;27;20462;-62
2022/11/03 10:02:56;;;;;;;8.17;3.30;;;14.80;99.90;;;;;;5139065;27;20484;-62
2022/11/03 10:05:25;;;;;;;8.37;3.27;;;14.90;99.90;;;;;;5134846;27;20907;-63
2022/11/03 10:07:56;;;;;;;8.00;3.47;;;15.00;99.90;;;;;;5139599;27;20715;-62
2022/11/03 10:10:24;;;;;;;7.40;3.00;;;15.10;99.90;;;;;;5129773;27;20479;-61
2022/11/03 10:12:52;;;;;;;7.77;3.93;;;15.10;99.90;;;;;;5116965;28;20487;-60
2022/11/03 10:15:24;;;;;;;5.40;2.73;;;14.90;99.90;;;;;;5116696;28;20470;-62
2022/11/03 10:17:54;;;;;;;5.60;2.90;;;14.90;99.90;;;;;;5116084;27;20562;-63
2022/11/03 10:20:22;;;;;;;7.23;3.30;;;14.80;99.90;;;;;;5133076;27;20525;-59
2022/11/03 10:22:53;;;;;;;8.00;2.93;;;14.80;99.90;;;;;;5118230;28;20902;-59
2022/11/03 10:25:41;;;;;;;8.00;2.97;;;14.80;99.90;;;;;;5118499;27;20533;-55
2022/11/03 10:28:14;;;;;;;9.20;3.07;;;14.90;99.90;;;;;;5117884;28;20437;-61
2022/11/03 10:30:55;;;;;;;3.40;2.60;;;14.90;99.90;;;;;;5118498;27;20883;-59
2022/11/03 10:33:29;;;;;;;4.20;2.53;;;14.90;99.90;;;;;;5121172;27;20466;-58
2022/11/03 10:35:57;;;;;;;13.23;3.57;;;14.90;99.90;;;;;;5118251;28;20430;-59
2022/11/03 10:38:30;;;;;;;10.03;3.47;;;14.80;99.90;;;;;;5121508;27;20451;-61
2022/11/03 10:41:09;;;;;;;5.90;3.40;;;15.00;99.90;;;;;;5118478;27;20730;-59
2022/11/03 10:43:36;;;;;;;4.87;3.17;;;14.90;99.90;;;;;;5123260;27;20466;-61
2022/11/03 10:46:21;;;;;;;5.90;2.60;;;14.90;99.90;;;;;;5137112;27;20894;-57
2022/11/03 10:49:02;;;;;;;5.03;2.67;;;15.00;99.90;;;;;;5122578;27;20467;-57
2022/11/03 10:51:30;;;;;;;4.43;2.37;;;15.00;99.90;;;;;;5118025;27;20462;-58
2022/11/03 10:53:57;;;;;;;4.83;3.20;;;14.90;99.90;;;;;;5117874;28;20794;-60
2022/11/03 10:56:25;;;;;;;5.30;2.73;;;14.90;99.90;;;;;;5125208;27;20844;-60
2022/11/03 10:58:52;;;;;;;4.10;2.53;;;14.80;99.90;;;;;;5133823;27;20884;-61
2022/11/03 11:01:19;;;;;;;6.63;2.80;;;14.90;99.90;;;;;;5122358;27;20773;-61
2022/11/03 11:03:47;;;;;;;13.17;3.73;;;15.00;99.90;;;;;;5120485;27;20889;-61
2022/11/03 11:06:27;;;;;;;7.90;2.97;;;14.90;99.90;;;;;;5117385;27;20491;-60
2022/11/03 11:09:04;;;;;;;4.53;3.30;;;14.90;99.90;;;;;;5116814;28;20455;-61
2022/11/03 11:11:31;;;;;;;8.10;3.47;;;14.80;99.90;;;;;;5117460;28;20466;-59
2022/11/03 11:14:35;;;;;;;6.80;3.00;;;14.80;99.90;;;;;;5117947;28;20510;-60
2022/11/03 11:17:05;;;;;;;5.43;2.30;;;14.90;99.90;;;;;;5117280;28;20511;-61
2022/11/03 11:20:17;;;;;;;6.73;2.83;;;15.20;99.90;;;;;;5117112;28;20460;-61
2022/11/03 11:22:48;;;;;;;4.20;3.00;;;15.30;99.90;;;;;;5117417;28;20553;-60
2022/11/03 11:25:17;;;;;;;5.97;2.90;;;15.40;99.90;;;;;;5117117;28;20884;-63
2022/11/03 11:27:58;;;;;;;4.90;2.57;;;15.20;99.90;;;;;;5116820;28;20426;-61
2022/11/03 11:30:58;;;;;;;7.00;3.10;;;15.10;99.90;;;;;;5116487;28;20458;-61
2022/11/03 11:33:27;;;;;;;4.77;2.50;;;15.20;99.90;;;;;;5053754;28;20490;-61
2022/11/03 11:36:28;;;;;;;6.07;2.77;;;15.30;99.90;;;;;;5053808;28;20458;-59
2022/11/03 11:39:03;;;;;;;4.80;2.80;;;15.20;99.90;;;;;;5097819;28;20987;-61
2022/11/03 11:42:05;;;;;;;5.83;2.73;;;15.20;99.90;;;;;;5116150;28;20761;-62
2022/11/03 11:45:05;;;;;;;7.87;2.93;;;15.40;99.90;;;;;;5123678;27;20448;-61
2022/11/03 11:47:42;;;;;;;5.50;3.10;;;15.70;99.90;;;;;;5115571;28;20457;-61
2022/11/03 11:50:26;;;;;;;6.70;4.10;;;16.00;99.90;;;;;;5116172;28;20458;-59
2022/11/03 11:52:59;;;;;;;6.80;2.77;;;16.10;99.90;;;;;;5104929;28;20540;-60
2022/11/03 11:55:31;;;;;;;5.17;2.90;;;16.10;99.90;;;;;;5114507;28;20458;-59
2022/11/03 11:58:01;;;;;;;7.43;2.30;;;16.00;99.90;;;;;;5115566;28;20441;-60
2022/11/03 12:00:34;;;;;;;4.13;2.70;;;16.00;99.90;;;;;;5116385;28;20823;-60
2022/11/03 12:03:03;;;;;;;8.70;2.90;;;16.00;99.90;;;;;;5125951;28;20530;-60
2022/11/03 12:05:33;;;;;;;7.20;2.20;;;15.80;99.90;;;;;;5136665;28;20750;-61
2022/11/03 12:08:01;;;;;;;6.87;2.70;;;15.60;99.90;;;;;;5137950;27;20481;-62
2022/11/03 12:10:31;;;;;;;4.27;2.53;;;15.60;99.90;;;;;;5122244;27;20528;-59
2022/11/03 12:13:00;;;;;;;4.93;2.60;;;15.40;99.90;;;;;;5125993;27;20452;-60
2022/11/03 12:15:51;;;;;;;5.23;2.47;;;15.40;99.90;;;;;;5138245;27;20649;-61
2022/11/03 12:18:41;;;;;;;4.50;2.83;;;15.20;99.90;;;;;;5125884;27;20463;-61
2022/11/03 12:21:10;;;;;;;3.27;2.43;;;15.10;99.90;;;;;;5119870;28;20466;-58
2022/11/03 12:23:40;;;;;;;3.00;2.43;;;15.10;99.90;;;;;;5121215;27;20763;-63
2022/11/03 12:26:18;;;;;;;6.90;3.20;;;15.10;99.90;;;;;;5120375;28;20460;-61
2022/11/03 12:28:47;;;;;;;3.50;2.23;;;15.00;99.90;;;;;;5134414;27;20439;-62
2022/11/03 12:31:14;;;;;;;4.00;2.43;;;15.00;99.90;;;;;;5120693;27;20482;-62
2022/11/03 12:33:41;;;;;;;5.93;2.50;;;14.90;99.90;;;;;;5119892;28;20787;-59
2022/11/03 12:36:09;;;;;;;4.80;2.93;;;14.90;99.90;;;;;;5120336;28;20545;-58
2022/11/03 12:38:36;;;;;;;5.80;2.83;;;14.80;99.90;;;;;;5120360;28;20467;-61
2022/11/03 12:41:27;;;;;;;3.97;2.67;;;14.90;99.90;;;;;;5131892;27;20430;-59
2022/11/03 12:43:55;;;;;;;6.63;2.57;;;15.00;99.90;;;;;;5139172;27;20737;-61
2022/11/03 12:46:23;;;;;;;4.53;2.57;;;15.10;99.90;;;;;;5140024;27;20769;-63
2022/11/03 12:48:52;;;;;;;7.20;2.87;;;15.20;99.90;;;;;;5140530;27;20462;-62
2022/11/03 12:51:21;;;;;;;3.90;2.23;;;15.20;99.90;;;;;;5127851;27;20766;-56
2022/11/03 12:53:48;;;;;;;6.10;3.57;;;15.30;99.90;;;;;;5123011;27;20954;-62
2022/11/03 12:56:18;;;;;;;3.23;2.43;;;15.30;99.90;;;;;;5129071;27;20931;-61
2022/11/03 12:58:45;;;;;;;4.10;3.07;;;15.40;99.90;;;;;;5129061;27;20454;-59
2022/11/03 13:01:12;;;;;;;5.40;2.90;;;15.40;99.90;;;;;;5139437;27;20454;-60
2022/11/03 13:03:42;;;;;;;5.40;3.03;;;15.20;99.90;;;;;;5137047;27;20783;-63
2022/11/03 13:06:13;;;;;;;4.23;3.20;;;15.00;99.90;;;;;;5126240;27;20910;-60
2022/11/03 13:08:40;;;;;;;15.23;5.20;;;14.70;99.90;;;;;;5121253;27;20459;-60
2022/11/03 13:13:53;;;;;;;5.90;2.97;;;14.50;99.90;;;;;;5128592;27;20466;-62
2022/11/03 13:16:26;;;;;;;4.80;2.73;;;14.50;99.90;;;;;;5137469;27;20459;-62
2022/11/03 13:18:53;;;;;;;3.90;2.80;;;14.50;99.90;;;;;;5137697;27;20462;-62
2022/11/03 13:21:20;;;;;;;5.20;3.03;;;14.50;99.90;;;;;;5136489;27;20433;-61
2022/11/03 13:23:51;;;;;;;3.60;2.80;;;14.40;99.90;;;;;;5121032;27;20793;-61
2022/11/03 13:26:19;;;;;;;4.47;3.07;;;14.40;99.90;;;;;;5133047;27;20494;-62
2022/11/03 13:28:46;;;;;;;6.67;3.20;;;14.40;99.90;;;;;;5128696;27;20463;-62
2022/11/03 13:31:17;;;;;;;4.90;3.20;;;14.40;99.90;;;;;;5118344;28;20471;-59
2022/11/03 13:33:44;;;;;;;5.27;2.97;;;14.40;99.90;;;;;;5133583;27;20784;-63